< < Back
Terminal Aerodrome Forecast


Current Version              Previous Versions:   1  2  3  4  5  6  7  8  9  

Terminal Aerodrome Forecast

087
FTUS44 KOHX 190800 AAB
TAFCSV
TAF AMD
KCSV 190825Z 1908/2006 00000KT 3SM BR SCT004
      TEMPO 1908/1911 1SM BR BKN004
     FM191200 01004KT 4SM BR OVC009
     FM191400 03004KT P6SM SCT040
     FM200400 05003KT P6SM BKN030=



Latest METAR

872
SAUS70 KWBC 191100 RRF
MTRCSV
METAR KCSV 191053Z AUTO 00000KT 4SM BR CLR M01/M03 A3017 RMK AO2 SLP226
T10061028


USA.gov is the U.S. government's official web portal to all federal, state and local government web resources and services.